Time;durP1;ratioP1;P1;durP2;ratioP2;P2;SDS_P1;SDS_P2;PMS_P1;PMS_P2;Temp;Humidity;BMP_temperature;BMP_pressure;BME280_temperature;BME280_humidity;BME280_pressure;Samples;Min_cycle;Max_cycle;Signal;HPM_P1;HPM_P2
2022/04/22 00:00:43;;;;;;;10.35;7.80;;;11.50;48.30;;;7.45;61.03;94064.50;5047801;28;20057;-51
2022/04/22 00:03:09;;;;;;;10.50;7.57;;;11.40;48.30;;;7.44;61.10;94073.53;5042885;28;20057;-55
2022/04/22 00:05:38;;;;;;;8.73;7.13;;;11.40;48.50;;;7.44;61.42;94072.72;5041363;28;20036;-53
2022/04/22 00:08:06;;;;;;;9.68;7.45;;;11.40;48.70;;;7.42;61.30;94070.34;5050034;28;20033;-52
2022/04/22 00:10:32;;;;;;;14.20;7.30;;;11.30;48.80;;;7.42;61.23;94071.13;5050195;28;20036;-52
2022/04/22 00:12:59;;;;;;;10.95;7.60;;;11.30;48.90;;;7.41;61.28;94058.97;5045190;28;20045;-53
2022/04/22 00:15:28;;;;;;;8.60;6.97;;;11.30;48.80;;;7.37;61.34;94071.22;5047431;28;20111;-53
2022/04/22 00:17:53;;;;;;;10.43;7.40;;;11.30;49.00;;;7.30;61.73;94060.16;5041745;28;20491;-52
2022/04/22 00:20:22;;;;;;;9.27;6.90;;;11.20;48.90;;;7.24;62.08;94050.69;5047071;28;20538;-55
2022/04/22 00:22:50;;;;;;;10.23;8.40;;;11.20;49.00;;;7.21;62.18;94056.53;5031029;28;20503;-53
2022/04/22 00:25:16;;;;;;;12.00;7.85;;;11.20;49.20;;;7.19;62.13;94053.38;5049876;28;20450;-51
2022/04/22 00:27:45;;;;;;;9.85;7.60;;;11.10;49.30;;;7.15;62.66;94052.38;5049949;28;20037;-49
2022/04/22 00:30:12;;;;;;;14.88;8.20;;;11.10;49.30;;;7.04;62.76;94048.22;5027258;28;20542;-50
2022/04/22 00:32:40;;;;;;;10.95;7.60;;;11.10;49.40;;;7.06;62.92;94048.75;5028307;28;20045;-51
2022/04/22 00:35:07;;;;;;;11.45;7.78;;;11.00;49.40;;;6.95;62.75;94046.16;5030376;28;20041;-54
2022/04/22 00:37:33;;;;;;;9.63;7.55;;;11.00;49.40;;;6.92;63.23;94054.66;5008891;28;20044;-51
2022/04/22 00:39:59;;;;;;;11.60;8.35;;;10.90;49.50;;;6.85;63.45;94046.25;5031817;28;20038;-54
2022/04/22 00:42:31;;;;;;;10.13;7.57;;;10.90;49.60;;;6.81;63.60;94039.19;5025342;28;20080;-53
2022/04/22 00:44:59;;;;;;;9.65;7.78;;;10.80;49.80;;;6.77;63.84;94040.78;5031741;28;20434;-52
2022/04/22 00:47:25;;;;;;;11.32;7.68;;;10.80;50.10;;;6.77;64.19;94033.66;5031881;28;20140;-52
2022/04/22 00:49:52;;;;;;;11.48;7.30;;;10.70;50.20;;;6.72;64.30;94025.75;5038709;28;20091;-54
2022/04/22 00:52:19;;;;;;;10.10;7.22;;;10.70;50.20;;;6.61;64.63;94032.16;5024304;28;20060;-53
2022/04/22 00:54:50;;;;;;;9.90;7.80;;;10.60;50.30;;;6.59;64.73;94034.31;5034469;28;20082;-49
2022/04/22 00:57:20;;;;;;;11.07;8.50;;;10.70;50.70;;;6.54;64.98;94029.06;5047969;28;20037;-51
2022/04/22 00:59:46;;;;;;;9.88;7.88;;;10.60;50.80;;;6.51;65.19;94027.75;5029721;28;20077;-50
2022/04/22 01:02:13;;;;;;;9.63;7.95;;;10.50;50.90;;;6.47;65.08;94024.88;5033038;28;20065;-49
2022/04/22 01:10:12;;;;;;;13.05;8.25;;;10.40;51.30;;;6.41;65.56;94019.91;5033165;28;20052;-53
2022/04/22 01:12:40;;;;;;;10.30;8.02;;;10.40;51.60;;;6.43;65.33;94023.84;5031416;28;20045;-53
2022/04/22 01:17:35;;;;;;;10.15;7.90;;;10.40;51.80;;;6.41;65.49;94006.69;5031649;28;20045;-58
2022/04/22 01:20:05;;;;;;;13.30;8.18;;;10.40;51.80;;;6.36;65.57;94004.88;5030890;28;20403;-57
2022/04/22 01:22:31;;;;;;;10.73;7.90;;;10.40;51.70;;;6.30;65.78;94003.34;4989469;28;20128;-57
2022/04/22 01:25:00;;;;;;;10.60;8.40;;;10.30;51.70;;;6.24;66.27;94010.50;4995568;28;20125;-56
2022/04/22 01:27:29;;;;;;;11.38;8.25;;;10.30;51.70;;;6.12;66.49;93996.84;5010320;28;20420;-57
2022/04/22 01:30:02;;;;;;;12.55;8.10;;;10.20;51.70;;;6.10;66.71;93998.94;4998934;28;20138;-55
2022/04/22 01:32:29;;;;;;;10.40;7.95;;;10.20;51.90;;;6.06;67.34;93994.50;5003438;28;20062;-54
2022/04/22 01:34:57;;;;;;;10.75;9.10;;;10.20;52.00;;;6.00;67.45;93991.88;5011840;28;20054;-55
2022/04/22 01:37:24;;;;;;;11.45;8.50;;;10.20;52.20;;;6.00;67.14;93983.16;5015005;28;20124;-56
2022/04/22 01:39:49;;;;;;;11.07;7.85;;;10.10;52.50;;;6.03;67.51;93991.34;4989721;28;20053;-59
2022/04/22 01:42:25;;;;;;;11.02;8.05;;;10.10;52.60;;;5.84;67.38;93968.44;5014898;28;20042;-56
2022/04/22 01:44:50;;;;;;;12.55;9.45;;;10.10;52.80;;;5.95;67.79;93983.97;5012672;28;20116;-57
2022/04/22 01:47:25;;;;;;;14.38;8.98;;;10.00;53.00;;;5.94;67.80;93987.69;5012931;28;20507;-58
2022/04/22 01:49:54;;;;;;;12.13;8.77;;;10.00;53.10;;;5.90;67.84;93983.22;5010720;28;20393;-58
2022/04/22 01:52:26;;;;;;;12.85;8.45;;;10.00;53.20;;;5.85;68.05;93970.81;5013049;28;20108;-56
2022/04/22 01:54:54;;;;;;;11.35;9.07;;;10.00;53.40;;;5.82;68.27;93973.19;4993125;28;20055;-58
2022/04/22 01:57:20;;;;;;;10.93;8.63;;;9.90;53.40;;;5.79;68.41;93982.47;4976162;28;20050;-57
2022/04/22 01:59:48;;;;;;;11.02;8.73;;;9.90;53.50;;;5.67;69.17;93971.44;5007443;28;20038;-58
2022/04/22 02:02:15;;;;;;;13.73;8.77;;;9.90;53.30;;;5.61;68.87;93986.53;4992067;28;20042;-57
2022/04/22 02:04:41;;;;;;;13.02;9.15;;;9.80;53.10;;;5.49;69.27;93984.22;4991685;28;20035;-57
2022/04/22 02:07:10;;;;;;;13.95;8.63;;;9.70;53.10;;;5.45;69.52;93985.81;4992883;28;20060;-58
2022/04/22 02:09:36;;;;;;;14.98;9.25;;;9.70;53.00;;;5.34;69.95;93985.06;5007511;28;20074;-58
2022/04/22 02:12:04;;;;;;;12.65;9.55;;;9.60;52.90;;;5.22;70.69;93992.50;4975083;28;20069;-57
2022/04/22 02:14:30;;;;;;;16.98;10.02;;;9.50;52.90;;;5.12;70.51;93987.25;5004394;28;20085;-58
2022/04/22 02:17:02;;;;;;;15.85;9.73;;;9.40;52.90;;;4.98;71.24;93981.75;5012154;28;20060;-58
2022/04/22 02:19:28;;;;;;;15.57;9.85;;;9.30;53.10;;;4.87;71.73;93990.75;5012432;28;20041;-54
2022/04/22 02:21:53;;;;;;;14.10;10.10;;;9.20;53.00;;;4.77;72.50;93982.84;5007347;28;20578;-58
2022/04/22 02:24:22;;;;;;;13.43;9.60;;;9.10;53.10;;;4.72;72.80;93993.41;5003103;28;20042;-57
2022/04/22 02:29:32;;;;;;;17.17;10.68;;;8.90;53.30;;;4.48;73.48;93974.69;5011050;28;20506;-58
2022/04/22 02:31:58;;;;;;;13.30;10.20;;;8.80;53.50;;;4.48;73.28;93982.59;5009493;28;20113;-55
2022/04/22 02:34:24;;;;;;;16.45;10.93;;;8.70;53.50;;;4.43;73.69;93974.72;5024196;28;20038;-58
2022/04/22 02:36:51;;;;;;;16.98;10.75;;;8.60;53.60;;;4.30;74.69;93976.81;5009945;28;20044;-58
2022/04/22 02:39:19;;;;;;;15.70;10.45;;;8.60;53.90;;;4.28;74.42;93960.47;5023829;28;20413;-57
2022/04/22 02:47:14;;;;;;;13.93;9.70;;;8.40;54.50;;;4.13;74.90;93966.53;5010758;28;20184;-58
2022/04/22 02:52:10;;;;;;;17.98;12.50;;;8.30;54.60;;;3.92;76.05;93955.22;4967089;28;20045;-58
2022/04/22 02:54:39;;;;;;;14.85;11.27;;;8.20;54.80;;;3.92;76.55;93959.69;5029073;28;20056;-58
2022/04/22 02:57:06;;;;;;;15.48;10.40;;;8.20;55.20;;;3.90;76.24;93956.50;5009337;28;20068;-56
2022/04/22 02:59:39;;;;;;;14.85;10.40;;;8.10;55.30;;;3.90;76.61;93962.56;5013606;28;20030;-57
2022/04/22 03:02:08;;;;;;;15.52;10.75;;;8.10;55.50;;;3.82;76.43;93952.53;4998026;28;20058;-53
2022/04/22 03:04:37;;;;;;;13.55;9.65;;;8.10;55.60;;;3.78;77.30;93959.38;5001540;28;20149;-53
2022/04/22 03:07:06;;;;;;;13.77;10.50;;;8.00;55.70;;;3.76;77.11;93953.63;5011011;28;20037;-56
2022/04/22 03:09:36;;;;;;;16.70;10.95;;;8.00;55.90;;;3.79;77.25;93955.72;5030868;28;20103;-52
2022/04/22 03:12:06;;;;;;;13.32;10.07;;;8.00;56.60;;;3.76;76.92;93940.44;5003393;28;20046;-58
2022/04/22 03:14:32;;;;;;;14.80;10.32;;;7.90;56.30;;;3.77;77.51;93944.66;5013273;28;20079;-58
2022/04/22 03:17:02;;;;;;;16.67;11.25;;;7.90;56.20;;;3.74;76.94;93939.91;5010153;28;20412;-57
2022/04/22 03:19:37;;;;;;;14.30;10.30;;;7.90;56.30;;;3.74;77.05;93955.72;5005703;28;20060;-58
2022/04/22 03:22:03;;;;;;;20.05;11.55;;;7.90;56.30;;;3.71;76.61;93951.75;5022054;28;20030;-58
2022/04/22 03:24:29;;;;;;;15.43;11.45;;;7.80;56.00;;;3.62;76.56;93944.63;5016233;28;20057;-56
2022/04/22 03:26:54;;;;;;;16.17;11.18;;;7.80;56.00;;;3.58;77.20;93959.38;5008214;28;20049;-57
2022/04/22 03:29:20;;;;;;;17.77;11.45;;;7.80;56.10;;;3.50;77.66;93949.34;5011134;28;20049;-57
2022/04/22 03:31:46;;;;;;;16.35;11.38;;;7.70;56.20;;;3.51;78.07;93943.81;5008952;28;20109;-58
2022/04/22 03:34:12;;;;;;;16.60;11.60;;;7.70;56.20;;;3.50;78.16;93950.13;5011043;28;20168;-54
2022/04/22 03:36:41;;;;;;;16.33;11.32;;;7.70;56.50;;;3.56;77.90;93956.97;5010591;28;20030;-54
2022/04/22 03:39:10;;;;;;;14.65;11.18;;;7.70;56.60;;;3.52;78.23;93948.03;5006954;28;20057;-55
2022/04/22 03:41:38;;;;;;;14.43;10.65;;;7.70;56.60;;;3.44;78.25;93944.03;5010268;28;20072;-57
2022/04/22 03:44:09;;;;;;;14.48;10.43;;;7.60;56.60;;;3.43;78.00;93947.72;5022175;28;20034;-53
2022/04/22 03:46:35;;;;;;;15.30;10.32;;;7.60;56.80;;;3.39;78.22;93940.63;5003326;28;20496;-55
2022/04/22 03:49:01;;;;;;;17.98;11.60;;;7.60;56.90;;;3.34;78.55;93932.72;5012449;28;20049;-53
2022/04/22 03:51:31;;;;;;;17.30;11.18;;;7.60;56.90;;;3.28;78.63;93939.00;5029320;28;20115;-56
2022/04/22 03:53:57;;;;;;;17.38;11.85;;;7.60;57.20;;;3.26;78.87;93941.91;5028220;28;20068;-55
2022/04/22 03:59:10;;;;;;;19.15;11.75;;;7.50;57.20;;;3.04;78.68;93938.66;4991371;28;20539;-54
2022/04/22 04:01:35;;;;;;;17.60;12.23;;;7.40;57.00;;;2.99;79.13;93942.06;4973164;28;20046;-53
2022/04/22 04:04:01;;;;;;;17.58;12.55;;;7.30;57.00;;;2.91;79.44;93945.97;4991339;28;20081;-52
2022/04/22 04:06:27;;;;;;;16.48;12.10;;;7.30;57.10;;;2.85;80.17;93947.00;5010641;28;20513;-57
2022/04/22 04:17:07;;;;;;;16.90;11.70;;;7.10;58.10;;;2.76;80.80;93959.06;5023651;28;20104;-53
2022/04/22 04:23:19;;;;;;;16.67;11.20;;;7.00;58.30;;;2.69;81.06;93953.22;5001980;28;20092;-53
2022/04/22 04:25:14;;;;;;;15.07;10.77;;;7.00;58.20;;;2.66;81.10;93951.88;5002774;28;20045;-54
2022/04/22 04:27:42;;;;;;;17.88;11.20;;;6.90;58.00;;;2.63;81.71;93954.22;5013408;28;20478;-53
2022/04/22 04:30:11;;;;;;;16.30;11.75;;;6.90;58.10;;;2.59;81.47;93946.06;5026268;28;20035;-56
2022/04/22 04:32:40;;;;;;;19.70;12.52;;;6.90;58.30;;;2.58;81.48;93955.00;5013541;28;20058;-52
2022/04/22 04:35:07;;;;;;;18.75;12.35;;;6.80;58.40;;;2.59;81.68;93953.16;5010797;28;20485;-53
2022/04/22 04:37:38;;;;;;;15.40;11.65;;;6.80;58.50;;;2.54;81.79;93954.72;5003670;28;20116;-54
2022/04/22 04:40:05;;;;;;;15.82;11.05;;;6.80;58.60;;;2.54;82.38;93954.72;5004812;28;20058;-52
2022/04/22 04:42:30;;;;;;;16.00;11.48;;;6.80;58.60;;;2.60;82.61;93955.56;5007557;28;20144;-55
2022/04/22 04:44:56;;;;;;;17.50;11.93;;;6.90;58.60;;;2.63;81.65;93967.38;5021806;28;20149;-52
2022/04/22 04:47:22;;;;;;;18.20;12.27;;;6.80;58.50;;;2.61;81.21;93959.75;5013936;28;20070;-52
2022/04/22 04:49:47;;;;;;;17.63;12.75;;;6.90;58.50;;;2.57;82.06;93961.31;5012713;28;20092;-55
2022/04/22 04:52:13;;;;;;;19.27;12.07;;;6.90;58.40;;;2.59;81.86;93961.84;5012100;28;20069;-54
2022/04/22 04:54:39;;;;;;;16.83;11.45;;;6.90;58.40;;;2.57;82.17;93958.69;5010247;28;20049;-57
2022/04/22 04:57:08;;;;;;;19.30;11.23;;;6.90;58.40;;;2.53;82.41;93934.72;4999271;28;20069;-52
2022/04/22 04:59:34;;;;;;;15.50;11.18;;;7.00;58.60;;;2.71;82.63;93962.44;5033718;28;20426;-56
2022/04/22 05:02:00;;;;;;;16.20;12.15;;;7.10;58.60;;;2.82;82.43;93954.59;5031289;28;20049;-54
2022/04/22 05:04:32;;;;;;;20.00;11.82;;;7.10;58.50;;;2.96;82.13;93960.97;5002586;28;20421;-55
2022/04/22 05:07:00;;;;;;;17.30;11.65;;;7.30;58.70;;;3.12;82.30;93956.59;5017390;28;20687;-52
2022/04/22 05:09:26;;;;;;;17.25;11.23;;;7.30;58.40;;;3.34;81.61;93965.06;5012277;28;20080;-53
2022/04/22 05:11:51;;;;;;;14.98;11.23;;;7.50;58.50;;;3.59;81.77;93966.19;5024921;28;20058;-52
2022/04/22 05:14:19;;;;;;;14.18;10.45;;;7.70;58.50;;;3.85;81.09;93967.81;5010959;28;20030;-53
2022/04/22 05:16:45;;;;;;;15.23;10.48;;;7.90;58.40;;;4.12;80.24;93967.59;5013030;28;20065;-55
2022/04/22 05:19:11;;;;;;;14.75;11.38;;;8.20;58.40;;;4.41;79.22;93980.25;5025438;28;20073;-57
2022/04/22 05:21:37;;;;;;;12.68;9.45;;;8.40;58.20;;;4.55;78.13;93968.13;5013689;28;20030;-56
2022/04/22 05:24:07;;;;;;;15.82;10.32;;;8.60;58.10;;;4.78;77.48;93966.75;5012520;28;20105;-54
2022/04/22 05:26:32;;;;;;;11.35;8.82;;;8.90;57.90;;;4.92;76.79;93969.63;5010919;28;20034;-54
2022/04/22 05:29:01;;;;;;;12.70;9.45;;;9.10;57.70;;;5.16;75.89;93974.31;5010685;28;20678;-56
2022/04/22 05:34:11;;;;;;;11.88;8.27;;;9.70;57.20;;;5.75;73.84;93973.50;5008605;28;20108;-56
2022/04/22 05:36:39;;;;;;;12.00;9.00;;;10.10;56.90;;;6.03;73.04;93978.13;5009823;28;20037;-56
2022/04/22 05:39:11;;;;;;;12.32;8.80;;;10.40;56.70;;;6.29;72.39;93967.34;5010132;28;20033;-57
2022/04/22 05:41:37;;;;;;;12.25;8.55;;;10.70;56.50;;;6.58;71.45;93969.22;5009122;28;20400;-56
2022/04/22 05:44:04;;;;;;;12.25;8.05;;;11.00;56.10;;;6.79;70.43;93962.69;5011387;28;20049;-58
2022/04/22 05:46:29;;;;;;;9.98;7.82;;;11.30;55.80;;;7.06;69.17;93974.59;5006818;28;20065;-55
2022/04/22 05:48:55;;;;;;;10.85;8.00;;;11.60;55.40;;;7.13;68.52;93967.91;5021666;28;20397;-55
2022/04/22 05:51:22;;;;;;;13.23;8.07;;;11.80;55.00;;;7.24;67.67;93970.41;5014765;28;20281;-58
2022/04/22 05:53:49;;;;;;;10.20;7.90;;;12.00;54.60;;;7.34;67.36;93962.38;5012975;28;20108;-58
2022/04/22 05:56:14;;;;;;;8.68;7.25;;;12.20;54.20;;;7.31;66.92;93944.41;5026002;28;20037;-53
2022/04/22 05:58:40;;;;;;;9.68;7.45;;;12.30;53.80;;;7.50;66.71;93963.75;5010078;28;20346;-52
2022/04/22 06:01:06;;;;;;;10.05;7.50;;;12.50;53.50;;;7.65;66.76;93960.94;5011243;28;20046;-56
2022/04/22 06:03:31;;;;;;;12.35;8.02;;;12.60;53.20;;;7.85;65.87;93951.13;5009785;28;20445;-55
2022/04/22 06:05:57;;;;;;;8.73;7.10;;;12.80;52.90;;;8.01;65.10;93959.63;5011130;28;20034;-58
2022/04/22 06:11:07;;;;;;;11.68;8.63;;;13.30;52.20;;;8.31;63.79;93963.72;5008346;28;20120;-58
2022/04/22 06:13:33;;;;;;;11.05;7.30;;;13.60;51.80;;;8.25;63.75;93956.91;5009190;28;20112;-56
2022/04/22 06:15:58;;;;;;;10.52;7.50;;;13.80;51.30;;;8.29;63.57;93944.63;5009871;28;20038;-56
2022/04/22 06:18:26;;;;;;;8.23;7.13;;;14.00;50.70;;;8.40;63.23;93946.09;5007314;28;20058;-56
2022/04/22 06:20:51;;;;;;;10.98;8.48;;;14.10;50.90;;;8.24;63.71;93945.50;5023161;28;20038;-58
2022/04/22 06:23:17;;;;;;;10.43;8.13;;;14.30;49.70;;;8.51;63.06;93950.13;5009351;28;20041;-55
2022/04/22 06:25:46;;;;;;;10.18;8.43;;;14.40;49.40;;;8.65;62.43;93946.72;5010425;28;20492;-58
2022/04/22 06:28:15;;;;;;;11.13;8.45;;;14.50;49.10;;;8.78;61.88;93954.72;5025632;28;20488;-54
2022/04/22 06:30:41;;;;;;;10.00;8.45;;;14.70;48.70;;;8.92;61.20;93946.00;5006744;28;20054;-58
2022/04/22 06:33:11;;;;;;;9.05;7.35;;;14.80;48.50;;;8.93;61.56;93956.34;5012657;28;20481;-57
2022/04/22 06:35:37;;;;;;;9.32;7.60;;;15.00;48.10;;;8.90;61.13;93956.91;5012620;28;20033;-59
2022/04/22 06:38:23;;;;;;;9.88;8.07;;;15.20;47.60;;;9.06;60.98;93956.63;5016760;28;20030;-55
2022/04/22 06:46:21;;;;;;;9.23;7.50;;;15.60;47.20;;;9.63;59.23;93944.59;5011977;28;20045;-56
2022/04/22 06:48:48;;;;;;;10.57;7.47;;;15.80;46.40;;;9.94;58.92;93952.72;5011025;28;20484;-58
2022/04/22 06:51:17;;;;;;;9.10;7.82;;;16.00;46.20;;;10.19;58.78;93951.38;5026215;28;20096;-59
2022/04/22 06:53:44;;;;;;;9.55;7.60;;;16.30;46.00;;;10.40;57.88;93948.25;5009493;28;20401;-59
2022/04/22 06:56:13;;;;;;;9.93;7.43;;;16.50;45.70;;;10.31;56.82;93940.22;5011183;28;20443;-58
2022/04/22 06:58:40;;;;;;;11.27;7.30;;;16.70;45.20;;;10.37;56.04;93947.00;5026541;28;20054;-58
2022/04/22 07:01:07;;;;;;;10.65;8.10;;;16.90;44.70;;;10.27;56.82;93941.13;5010687;28;20038;-59
2022/04/22 07:03:33;;;;;;;9.85;7.93;;;17.10;44.60;;;10.48;56.44;93954.75;5006532;28;20034;-59
2022/04/22 07:05:59;;;;;;;8.63;7.72;;;17.20;43.50;;;10.60;56.32;93945.09;5019134;28;20050;-58
2022/04/22 07:08:31;;;;;;;10.25;7.65;;;17.40;43.40;;;10.44;55.97;93938.59;5023091;28;20129;-57
2022/04/22 07:11:10;;;;;;;8.87;7.97;;;17.60;42.70;;;10.51;56.44;93952.25;5016299;28;20116;-58
2022/04/22 07:13:37;;;;;;;10.63;8.27;;;17.70;42.20;;;10.76;55.52;93963.38;4992373;28;20312;-59
2022/04/22 07:16:04;;;;;;;9.15;8.23;;;17.80;42.00;;;10.92;55.93;93951.25;5021231;23;20081;-50
2022/04/22 07:18:33;;;;;;;10.82;7.82;;;17.90;41.80;;;11.43;54.79;93957.88;5009699;28;20042;-50
2022/04/22 07:20:59;;;;;;;10.65;8.77;;;18.10;41.90;;;11.55;54.47;93949.28;5020139;28;20045;-51
2022/04/22 07:23:31;;;;;;;11.55;8.60;;;18.30;41.50;;;11.77;53.25;93953.72;5009686;28;20068;-53
2022/04/22 07:25:58;;;;;;;11.25;8.02;;;18.50;41.00;;;12.02;53.37;93957.56;5010376;28;20038;-51
2022/04/22 07:28:30;;;;;;;10.25;7.22;;;18.70;40.90;;;12.15;51.72;93951.28;5009126;28;20046;-50
2022/04/22 07:30:57;;;;;;;9.93;7.53;;;18.90;40.50;;;12.14;52.01;93944.38;5016991;28;20090;-49
2022/04/22 07:33:26;;;;;;;9.70;8.30;;;19.10;39.80;;;12.16;52.03;93954.75;5032036;28;20389;-48
2022/04/22 07:35:52;;;;;;;9.20;8.10;;;19.30;39.40;;;11.96;51.91;93948.91;5005638;28;20065;-50
2022/04/22 07:38:24;;;;;;;9.20;7.88;;;19.30;38.90;;;12.04;51.85;93934.81;5000258;28;20037;-53
2022/04/22 07:40:51;;;;;;;10.48;8.32;;;19.50;38.60;;;11.93;52.42;93944.22;5036462;28;20056;-53
2022/04/22 07:48:57;;;;;;;9.18;8.05;;;19.70;37.80;;;12.70;51.16;93944.53;5002901;28;20063;-49
2022/04/22 07:51:26;;;;;;;9.48;8.43;;;19.90;37.90;;;13.09;49.45;93945.34;5034080;28;20412;-51
2022/04/22 07:53:55;;;;;;;11.18;8.13;;;20.10;37.70;;;13.28;48.60;93948.47;5034604;28;20578;-51
2022/04/22 07:56:24;;;;;;;9.00;8.10;;;20.30;37.30;;;13.37;48.30;93943.84;5039741;28;20056;-49
2022/04/22 07:58:50;;;;;;;10.73;8.40;;;20.50;36.90;;;13.62;48.84;93954.75;5017998;28;20033;-48
2022/04/22 08:01:19;;;;;;;9.30;8.27;;;20.60;36.70;;;13.42;48.23;93942.91;5044854;28;20128;-54
2022/04/22 08:03:44;;;;;;;9.48;8.48;;;20.70;36.20;;;13.43;47.42;93947.16;5018362;28;20456;-50
2022/04/22 08:06:11;;;;;;;9.32;7.78;;;20.70;36.00;;;13.62;47.46;93938.72;5044862;28;20076;-49
2022/04/22 08:08:40;;;;;;;11.40;8.20;;;20.80;35.80;;;14.23;46.69;93944.47;5035659;28;20033;-50
2022/04/22 08:11:09;;;;;;;10.27;8.10;;;21.00;35.80;;;14.37;45.18;93938.06;5037059;28;20369;-48
2022/04/22 08:13:41;;;;;;;10.48;8.70;;;21.40;35.20;;;14.17;45.28;93942.31;5034858;28;20069;-52
2022/04/22 08:16:16;;;;;;;8.80;7.90;;;21.60;34.50;;;14.32;45.98;93925.63;5034909;28;20108;-54
2022/04/22 08:18:41;;;;;;;9.77;8.32;;;21.70;34.10;;;14.33;45.13;93937.94;5017191;28;20039;-52
2022/04/22 08:21:08;;;;;;;11.63;8.23;;;21.80;33.70;;;14.12;46.23;93937.94;5033656;28;20127;-53
2022/04/22 08:23:34;;;;;;;9.52;8.52;;;21.80;33.40;;;14.33;45.83;93943.28;5038653;28;20064;-53
2022/04/22 08:26:04;;;;;;;9.77;8.63;;;21.80;33.60;;;14.57;45.05;93939.94;5041840;28;20065;-50
2022/04/22 08:28:30;;;;;;;8.95;8.05;;;21.90;33.40;;;14.68;45.14;93940.34;5034225;28;20107;-50
2022/04/22 08:30:55;;;;;;;9.25;8.30;;;22.00;33.20;;;14.87;44.25;93931.78;5032470;28;20041;-48
2022/04/22 08:33:21;;;;;;;10.07;8.35;;;22.10;33.10;;;14.79;43.93;93939.59;5030815;28;20045;-49
2022/04/22 08:35:51;;;;;;;10.35;8.15;;;22.20;32.60;;;14.66;45.53;93935.28;5034563;28;20037;-50
2022/04/22 08:38:23;;;;;;;10.45;9.05;;;22.30;32.80;;;14.57;45.32;93923.88;5034280;28;20029;-50
2022/04/22 08:40:49;;;;;;;9.75;8.75;;;22.30;33.30;;;15.05;44.64;93935.88;5034754;28;20069;-51
2022/04/22 08:43:17;;;;;;;10.52;9.50;;;22.40;32.70;;;15.11;44.84;93925.72;5035291;28;20037;-50
2022/04/22 08:45:54;;;;;;;11.00;9.27;;;22.60;32.50;;;15.49;43.61;93923.50;5034502;28;20532;-53
2022/04/22 08:51:15;;;;;;;10.73;9.23;;;22.70;32.20;;;15.86;42.36;93925.44;5000636;28;20312;-50
2022/04/22 08:53:50;;;;;;;11.75;9.90;;;22.80;32.00;;;15.67;42.37;93924.09;5015848;28;20111;-50
2022/04/22 08:56:17;;;;;;;10.60;9.50;;;23.00;31.50;;;15.98;42.47;93924.59;5015300;28;20050;-54
2022/04/22 08:58:43;;;;;;;11.88;10.32;;;23.20;31.10;;;16.07;43.27;93925.25;5015565;28;20551;-52
2022/04/22 09:01:09;;;;;;;10.93;9.82;;;23.50;30.90;;;16.19;41.78;93927.91;5013820;28;20033;-55
2022/04/22 09:03:35;;;;;;;11.80;9.40;;;23.70;30.60;;;16.27;41.78;93923.56;5012130;28;20041;-50
2022/04/22 09:06:04;;;;;;;12.15;10.05;;;23.60;30.50;;;16.64;41.22;93919.63;5014435;28;20164;-49
2022/04/22 09:08:30;;;;;;;12.25;10.27;;;23.80;30.40;;;17.04;40.89;93929.50;5014321;28;20046;-50
2022/04/22 09:11:03;;;;;;;10.90;9.80;;;24.10;30.30;;;17.45;39.13;93924.75;5014274;28;20061;-53
2022/04/22 09:13:32;;;;;;;10.90;9.73;;;24.50;30.00;;;17.75;38.43;93930.47;5033263;28;20087;-53
2022/04/22 09:15:59;;;;;;;14.20;10.30;;;24.80;29.80;;;17.78;38.62;93929.81;5039495;28;20139;-52
2022/04/22 09:18:26;;;;;;;11.07;9.65;;;25.20;29.50;;;17.45;39.68;93929.38;5040308;28;20040;-52
2022/04/22 09:21:02;;;;;;;11.00;9.90;;;25.50;28.90;;;17.53;39.42;93931.09;5038216;28;20061;-52
2022/04/22 09:23:34;;;;;;;11.00;10.00;;;25.50;28.70;;;17.99;38.33;93929.53;5036802;28;20054;-53
2022/04/22 09:26:02;;;;;;;12.45;10.27;;;25.70;29.20;;;17.62;39.51;93917.47;5030973;28;20373;-55
2022/04/22 09:28:29;;;;;;;12.43;9.90;;;25.70;28.70;;;17.72;39.47;93923.09;5042490;28;20059;-49
2022/04/22 09:31:04;;;;;;;14.80;10.82;;;25.70;28.60;;;17.47;39.20;93925.19;5035953;28;20438;-50
2022/04/22 09:33:44;;;;;;;12.88;10.77;;;25.90;28.30;;;16.53;40.99;93920.44;5033716;28;20455;-49
2022/04/22 09:45:06;;;;;;;11.30;10.13;;;25.80;27.80;;;17.22;41.31;93926.50;5032099;28;20067;-52
2022/04/22 09:47:35;;;;;;;11.98;10.70;;;26.00;27.70;;;17.61;40.24;93923.97;5022069;28;20088;-53
2022/04/22 09:50:11;;;;;;;12.30;11.10;;;26.10;27.80;;;17.93;38.60;93920.16;5029393;28;20030;-51
2022/04/22 09:52:43;;;;;;;12.55;11.25;;;26.40;27.70;;;17.64;38.95;93917.88;5024824;28;20377;-51
2022/04/22 09:55:13;;;;;;;12.90;11.03;;;26.50;27.20;;;18.28;39.46;93919.34;5027840;28;20057;-52
2022/04/22 09:58:01;;;;;;;15.88;11.82;;;26.70;27.30;;;18.57;38.36;93909.91;5030652;28;20132;-54
2022/04/22 10:00:32;;;;;;;12.15;10.95;;;27.00;27.20;;;17.72;38.89;93916.94;5039477;28;20089;-53
2022/04/22 10:02:59;;;;;;;12.73;11.40;;;27.00;26.70;;;18.32;37.37;93908.66;5037214;28;20040;-50
2022/04/22 10:05:28;;;;;;;11.60;10.40;;;27.10;26.60;;;18.45;37.95;93913.53;5048339;28;20588;-51
2022/04/22 10:07:56;;;;;;;12.55;11.35;;;27.20;26.60;;;18.59;37.47;93906.88;5030305;28;20049;-55
2022/04/22 10:10:37;;;;;;;15.45;11.95;;;27.30;26.40;;;19.23;37.49;93910.00;5033985;28;20051;-54
2022/04/22 10:13:04;;;;;;;13.40;12.13;;;27.60;26.40;;;19.26;37.27;93911.97;5045052;28;20057;-54
2022/04/22 10:15:37;;;;;;;12.75;11.38;;;27.80;26.30;;;19.58;35.83;93902.47;5030320;28;20029;-53
2022/04/22 10:18:04;;;;;;;;;;;28.20;26.00;;;19.39;36.58;93891.75;5031206;28;20044;-55
2022/04/22 10:20:33;;;;;;;14.02;12.20;;;28.40;26.00;;;19.60;35.32;93902.13;5031322;28;20043;-51
2022/04/22 10:23:03;;;;;;;13.18;11.85;;;28.60;25.50;;;19.50;35.41;93908.91;5015318;28;20037;-51
2022/04/22 10:25:30;;;;;;;12.90;11.68;;;28.60;25.30;;;19.21;35.49;93906.88;5031226;28;20045;-50
2022/04/22 10:27:59;;;;;;;12.48;10.98;;;28.40;25.20;;;19.48;35.60;93907.72;5014791;28;20080;-50
2022/04/22 10:30:29;;;;;;;11.45;10.35;;;28.20;25.30;;;19.48;35.79;93903.09;5032061;28;20046;-53
2022/04/22 10:32:56;;;;;;;13.30;10.48;;;28.00;25.50;;;19.65;35.47;93896.47;5030421;28;20029;-53
2022/04/22 10:35:25;;;;;;;12.77;11.57;;;27.70;25.60;;;19.40;36.04;93893.34;5010926;28;20188;-51
2022/04/22 10:37:54;;;;;;;12.82;11.48;;;27.30;25.70;;;19.04;36.21;93900.81;5032555;28;20172;-50
2022/04/22 10:40:25;;;;;;;13.18;11.55;;;27.00;25.90;;;19.01;37.31;93903.44;5031263;28;20116;-51
2022/04/22 10:42:55;;;;;;;12.98;10.90;;;26.80;26.20;;;19.10;37.29;93907.47;5031645;28;20034;-53
2022/04/22 10:48:28;;;;;;;12.70;11.40;;;27.10;26.20;;;19.69;36.76;93891.09;5022268;28;20072;-52
2022/04/22 10:51:03;;;;;;;13.80;12.40;;;27.50;26.10;;;19.16;36.75;93903.34;5031501;28;20110;-54
2022/04/22 10:53:43;;;;;;;14.13;12.70;;;28.10;25.90;;;18.82;37.45;93891.56;5035365;28;20059;-51
2022/04/22 10:56:33;;;;;;;11.82;10.50;;;28.30;25.50;;;19.08;36.29;93893.53;5022193;28;20050;-56
2022/04/22 10:59:20;;;;;;;13.13;11.93;;;28.40;25.10;;;19.82;36.08;93895.94;5011656;28;20030;-55
2022/04/22 11:01:49;;;;;;;15.73;12.80;;;28.80;25.30;;;19.86;35.67;93885.94;5010338;28;20494;-53
2022/04/22 11:04:26;;;;;;;14.38;12.85;;;29.00;25.10;;;19.50;35.98;93891.94;5007733;28;20103;-55
2022/04/22 11:06:55;;;;;;;13.43;12.13;;;29.10;24.70;;;19.68;35.93;93878.72;5026233;28;20037;-51
2022/04/22 11:09:31;;;;;;;12.60;11.10;;;29.10;24.60;;;20.33;35.94;93878.47;5006951;28;20396;-52
2022/04/22 11:11:59;;;;;;;13.30;11.95;;;29.30;24.70;;;20.60;34.60;93879.22;5021009;28;20045;-55
2022/04/22 11:14:32;;;;;;;12.60;10.88;;;29.50;24.60;;;20.79;34.15;93889.84;4991782;28;20116;-54
2022/04/22 11:17:34;;;;;;;12.95;10.55;;;29.60;25.00;;;20.27;33.49;93890.75;5008454;28;20087;-55
2022/04/22 11:19:59;;;;;;;13.70;11.90;;;29.60;24.30;;;18.30;37.51;93887.44;5017875;28;20037;-52
2022/04/22 11:22:56;;;;;;;13.50;12.15;;;29.40;23.70;;;18.42;37.52;93884.59;5020220;28;20049;-51
2022/04/22 11:25:29;;;;;;;12.98;11.70;;;29.20;23.60;;;18.62;37.93;93892.69;4996007;28;20035;-53
2022/04/22 11:27:56;;;;;;;12.88;11.23;;;29.10;24.00;;;19.03;36.79;93895.78;5026670;28;20030;-58